Terminal Aerodrome Forecast
Issued by NWS Louisville, KY

Home | Current Version | Previous Version | Text Only | Print | Product List | Glossary On
Versions: 1 2 3 4 5 6 7 8 9 10 11 12
000
FTUS43 KLMK 220524
TAFSDF
TAF
KSDF 220524Z 2206/2312 00000KT P6SM SKC
     FM221000 00000KT 6SM BR SKC
     FM221230 08003KT P6SM FEW045=

USA.gov is the U.S. government's official web portal to all federal, state and local government web resources and services.